Time;durP1;ratioP1;P1;durP2;ratioP2;P2;SDS_P1;SDS_P2;PMS_P1;PMS_P2;Temp;Humidity;BMP_temperature;BMP_pressure;BME280_temperature;BME280_humidity;BME280_pressure;Samples;Min_cycle;Max_cycle;Signal;HPM_P1;HPM_P2
2023/08/05 00:02:07;;;;;;;3.75;2.60;;;;;;;;;;4975765;28;20030;-76
2023/08/05 00:04:33;;;;;;;2.47;2.28;;;;;;;;;;4975386;28;20189;-77
2023/08/05 00:06:59;;;;;;;3.63;2.28;;;;;;;;;;4975835;28;20042;-78
2023/08/05 00:09:26;;;;;;;3.92;2.65;;;;;;;;;;4993619;28;20030;-76
2023/08/05 00:11:52;;;;;;;4.65;2.50;;;;;;;;;;4976247;28;20026;-77
2023/08/05 00:14:18;;;;;;;3.88;2.47;;;;;;;;;;4997723;28;20029;-77
2023/08/05 00:16:44;;;;;;;6.13;2.97;;;;;;;;;;4980317;28;20030;-77
2023/08/05 00:19:10;;;;;;;7.30;2.58;;;;;;;;;;4980291;28;20068;-77
2023/08/05 00:21:37;;;;;;;7.93;2.90;;;;;;;;;;4980396;28;20022;-78
2023/08/05 00:24:03;;;;;;;2.65;2.28;;;;;;;;;;4998406;28;20080;-77
2023/08/05 00:26:31;;;;;;;2.75;2.17;;;;;;;;;;5000683;28;20032;-77
2023/08/05 00:28:57;;;;;;;3.58;2.60;;;;;;;;;;5006661;28;20032;-78
2023/08/05 00:31:24;;;;;;;3.22;2.60;;;;;;;;;;4992676;28;20037;-78
2023/08/05 00:33:50;;;;;;;2.85;2.45;;;;;;;;;;5011758;28;20050;-77
2023/08/05 00:36:17;;;;;;;3.38;2.55;;;;;;;;;;4994942;28;20026;-77
2023/08/05 00:38:43;;;;;;;4.00;2.38;;;;;;;;;;4992323;28;20034;-78
2023/08/05 00:41:09;;;;;;;3.90;2.30;;;;;;;;;;4990739;28;20022;-77
2023/08/05 00:43:35;;;;;;;5.97;3.00;;;;;;;;;;4988147;28;20053;-77
2023/08/05 00:46:09;;;;;;;5.32;2.67;;;;;;;;;;5003425;28;20050;-78
2023/08/05 00:48:40;;;;;;;4.35;2.50;;;;;;;;;;4984733;28;20046;-77
2023/08/05 00:51:10;;;;;;;6.10;2.95;;;;;;;;;;4986536;28;20031;-77
2023/08/05 00:53:38;;;;;;;4.63;2.63;;;;;;;;;;4986862;28;20034;-77
2023/08/05 00:56:05;;;;;;;4.10;2.42;;;;;;;;;;4985019;28;20060;-78
2023/08/05 00:58:32;;;;;;;4.65;2.38;;;;;;;;;;5000423;28;20056;-77
2023/08/05 01:00:59;;;;;;;4.28;2.67;;;;;;;;;;4981822;28;20030;-78
2023/08/05 01:03:26;;;;;;;5.03;2.63;;;;;;;;;;4980964;28;20041;-79
2023/08/05 01:05:53;;;;;;;3.20;2.60;;;;;;;;;;4980957;28;20076;-78
2023/08/05 01:08:22;;;;;;;5.32;3.30;;;;;;;;;;4997756;28;20022;-77
2023/08/05 01:10:54;;;;;;;5.57;3.08;;;;;;;;;;5002241;28;20026;-77
2023/08/05 01:13:21;;;;;;;4.53;3.00;;;;;;;;;;4982475;28;20080;-77
2023/08/05 01:15:46;;;;;;;3.65;2.58;;;;;;;;;;4979805;28;20037;-76
2023/08/05 01:18:16;;;;;;;2.90;2.42;;;;;;;;;;4980317;28;20026;-78
2023/08/05 01:20:54;;;;;;;3.22;2.42;;;;;;;;;;4978821;28;20041;-77
2023/08/05 01:23:51;;;;;;;2.95;2.53;;;;;;;;;;4978536;28;20033;-77
2023/08/05 01:26:18;;;;;;;3.30;2.40;;;;;;;;;;4968530;28;20065;-77
2023/08/05 01:28:45;;;;;;;6.78;3.30;;;;;;;;;;4978719;28;20061;-77
2023/08/05 01:31:18;;;;;;;3.83;2.63;;;;;;;;;;4978168;28;20386;-77
2023/08/05 01:33:46;;;;;;;4.05;2.80;;;;;;;;;;4962425;28;20054;-77
2023/08/05 01:36:19;;;;;;;6.97;2.95;;;;;;;;;;4977957;28;20390;-77
2023/08/05 01:38:47;;;;;;;3.60;2.50;;;;;;;;;;4978013;28;20029;-77
2023/08/05 01:41:16;;;;;;;6.15;3.30;;;;;;;;;;4977340;28;20030;-77
2023/08/05 01:43:45;;;;;;;4.53;2.78;;;;;;;;;;4977687;28;20355;-77
2023/08/05 01:46:11;;;;;;;3.22;2.45;;;;;;;;;;4977197;28;20557;-77
2023/08/05 01:48:37;;;;;;;9.07;2.97;;;;;;;;;;4976988;28;20493;-77
2023/08/05 01:51:04;;;;;;;3.05;2.70;;;;;;;;;;4977303;28;20030;-76
2023/08/05 01:53:30;;;;;;;4.88;3.00;;;;;;;;;;4977186;28;20041;-77
2023/08/05 01:55:56;;;;;;;4.43;2.50;;;;;;;;;;4977068;28;20026;-77
2023/08/05 01:58:33;;;;;;;4.07;2.85;;;;;;;;;;4977625;28;20026;-77
2023/08/05 02:01:01;;;;;;;3.47;2.92;;;;;;;;;;4995482;28;20117;-76
2023/08/05 02:03:27;;;;;;;5.30;3.20;;;;;;;;;;4977532;28;20057;-76
2023/08/05 02:05:53;;;;;;;5.18;2.70;;;;;;;;;;4994514;28;20588;-77
2023/08/05 02:08:19;;;;;;;7.18;3.08;;;;;;;;;;4993672;28;20049;-78
2023/08/05 02:10:45;;;;;;;2.90;2.58;;;;;;;;;;4981113;28;20038;-77
2023/08/05 02:13:11;;;;;;;3.22;2.90;;;;;;;;;;4995259;28;20034;-77
2023/08/05 02:15:37;;;;;;;6.32;2.88;;;;;;;;;;4990119;28;20074;-78
2023/08/05 02:18:04;;;;;;;3.30;2.95;;;;;;;;;;5004979;28;20031;-78
2023/08/05 02:20:37;;;;;;;3.95;3.05;;;;;;;;;;4984799;28;20121;-78
2023/08/05 02:23:11;;;;;;;6.45;2.92;;;;;;;;;;4999941;28;20042;-77
2023/08/05 02:25:38;;;;;;;3.92;3.50;;;;;;;;;;4985880;28;20039;-77
2023/08/05 02:28:04;;;;;;;7.57;3.30;;;;;;;;;;4989667;28;20674;-77
2023/08/05 02:30:30;;;;;;;4.22;3.10;;;;;;;;;;4986399;28;20117;-77
2023/08/05 02:32:56;;;;;;;8.70;2.88;;;;;;;;;;4982446;28;20130;-76
2023/08/05 02:35:23;;;;;;;3.55;2.83;;;;;;;;;;4996337;28;20077;-76
2023/08/05 02:37:49;;;;;;;3.28;2.45;;;;;;;;;;4975877;28;20037;-77
2023/08/05 02:40:21;;;;;;;5.35;2.63;;;;;;;;;;4994969;28;20030;-77
2023/08/05 02:42:47;;;;;;;4.28;3.30;;;;;;;;;;4977402;28;20367;-79
2023/08/05 02:45:14;;;;;;;3.67;2.90;;;;;;;;;;4994525;28;20376;-76
2023/08/05 02:47:40;;;;;;;3.28;2.78;;;;;;;;;;4978512;28;20098;-77
2023/08/05 02:50:10;;;;;;;9.48;3.72;;;;;;;;;;4982955;28;20050;-77
2023/08/05 02:52:36;;;;;;;4.03;2.80;;;;;;;;;;4980012;28;20034;-77
2023/08/05 02:55:04;;;;;;;5.07;3.15;;;;;;;;;;4977173;28;20463;-78
2023/08/05 02:57:30;;;;;;;2.40;2.20;;;;;;;;;;4994976;28;20415;-76
2023/08/05 02:59:56;;;;;;;5.25;2.67;;;;;;;;;;4976068;28;20037;-77
2023/08/05 03:02:22;;;;;;;5.78;3.05;;;;;;;;;;4976685;28;20030;-78
2023/08/05 03:04:48;;;;;;;5.00;2.83;;;;;;;;;;4976277;28;20034;-76
2023/08/05 03:07:23;;;;;;;3.40;2.70;;;;;;;;;;4992591;28;20458;-77
2023/08/05 03:09:49;;;;;;;3.55;2.83;;;;;;;;;;4993901;28;20081;-77
2023/08/05 03:12:17;;;;;;;6.13;3.47;;;;;;;;;;4976916;28;20034;-77
2023/08/05 03:14:43;;;;;;;3.30;2.45;;;;;;;;;;4976521;28;20022;-76
2023/08/05 03:17:10;;;;;;;4.55;2.88;;;;;;;;;;4977019;28;20431;-77
2023/08/05 03:19:37;;;;;;;3.72;2.22;;;;;;;;;;4994599;28;20085;-78
2023/08/05 03:22:03;;;;;;;4.20;2.67;;;;;;;;;;4976761;28;20487;-76
2023/08/05 03:24:29;;;;;;;2.70;2.50;;;;;;;;;;4977230;28;20031;-78
2023/08/05 03:26:55;;;;;;;5.65;3.08;;;;;;;;;;4994347;28;20023;-77
2023/08/05 03:29:21;;;;;;;3.05;2.65;;;;;;;;;;4994426;28;20030;-77
2023/08/05 03:31:47;;;;;;;4.40;2.58;;;;;;;;;;4977283;28;20037;-77
2023/08/05 03:34:14;;;;;;;4.53;2.63;;;;;;;;;;4996650;28;20073;-77
2023/08/05 03:36:43;;;;;;;2.75;2.55;;;;;;;;;;4998232;28;20066;-77
2023/08/05 03:39:09;;;;;;;4.35;2.80;;;;;;;;;;4979634;28;20061;-77
2023/08/05 03:41:35;;;;;;;5.75;3.28;;;;;;;;;;4979775;28;20141;-77
2023/08/05 03:44:02;;;;;;;3.10;2.70;;;;;;;;;;4998440;28;20168;-77
2023/08/05 03:46:30;;;;;;;4.03;2.80;;;;;;;;;;4983563;28;20034;-77
2023/08/05 03:49:02;;;;;;;3.22;2.70;;;;;;;;;;4973462;28;20034;-77
2023/08/05 03:51:27;;;;;;;5.28;3.22;;;;;;;;;;4993753;28;20036;-77
2023/08/05 03:53:56;;;;;;;4.70;3.10;;;;;;;;;;4988111;28;20102;-77
2023/08/05 03:56:24;;;;;;;6.40;2.72;;;;;;;;;;5007484;28;20037;-77
2023/08/05 03:58:56;;;;;;;6.57;2.72;;;;;;;;;;5003252;28;20027;-76
2023/08/05 04:01:23;;;;;;;4.45;2.40;;;;;;;;;;5000882;28;20033;-77
2023/08/05 04:03:53;;;;;;;3.42;2.55;;;;;;;;;;4996109;28;20521;-77
2023/08/05 04:06:20;;;;;;;5.40;2.83;;;;;;;;;;4978880;28;20038;-78
2023/08/05 04:08:52;;;;;;;5.38;2.85;;;;;;;;;;4981446;28;20057;-78
2023/08/05 04:11:19;;;;;;;4.90;3.13;;;;;;;;;;4982649;28;20034;-77
2023/08/05 04:13:45;;;;;;;4.75;3.35;;;;;;;;;;4980093;28;20065;-78
2023/08/05 04:16:11;;;;;;;4.95;3.25;;;;;;;;;;4994856;28;20030;-79
2023/08/05 04:18:48;;;;;;;3.50;2.60;;;;;;;;;;4976625;28;20114;-77
2023/08/05 04:21:35;;;;;;;3.13;2.72;;;;;;;;;;4991458;28;20022;-77
2023/08/05 04:24:02;;;;;;;6.43;3.22;;;;;;;;;;4975563;28;20036;-77
2023/08/05 04:26:33;;;;;;;4.38;3.30;;;;;;;;;;4976655;28;20076;-77
2023/08/05 04:28:59;;;;;;;4.10;3.10;;;;;;;;;;4981181;28;20030;-78
2023/08/05 04:31:25;;;;;;;3.50;3.10;;;;;;;;;;4979902;28;20202;-78
2023/08/05 04:33:54;;;;;;;3.55;2.78;;;;;;;;;;4994176;28;20093;-78
2023/08/05 04:36:23;;;;;;;6.75;2.38;;;;;;;;;;4992074;28;20038;-76
2023/08/05 04:38:49;;;;;;;6.07;3.00;;;;;;;;;;4975721;28;20038;-76
2023/08/05 04:41:19;;;;;;;5.68;3.63;;;;;;;;;;4976182;28;20033;-79
2023/08/05 04:43:45;;;;;;;7.72;3.20;;;;;;;;;;4993117;28;20026;-76
2023/08/05 04:46:11;;;;;;;6.38;3.42;;;;;;;;;;4975189;28;20372;-76
2023/08/05 04:48:37;;;;;;;6.60;3.00;;;;;;;;;;4992958;28;20077;-77
2023/08/05 04:51:03;;;;;;;3.85;2.63;;;;;;;;;;4975154;28;20038;-76
2023/08/05 04:53:28;;;;;;;11.65;3.95;;;;;;;;;;4975480;28;20032;-76
2023/08/05 04:56:01;;;;;;;5.82;3.90;;;;;;;;;;4975948;28;20109;-77
2023/08/05 04:58:27;;;;;;;5.57;3.40;;;;;;;;;;4993438;28;20121;-76
2023/08/05 05:00:57;;;;;;;4.63;3.55;;;;;;;;;;4977623;28;20444;-77
2023/08/05 05:03:23;;;;;;;4.90;3.17;;;;;;;;;;4978951;28;20026;-77
2023/08/05 05:05:49;;;;;;;11.90;4.10;;;;;;;;;;4979417;28;20082;-77
2023/08/05 05:08:18;;;;;;;5.22;3.30;;;;;;;;;;4996838;28;20479;-77
2023/08/05 05:10:48;;;;;;;10.88;3.03;;;;;;;;;;4980004;28;20463;-76
2023/08/05 05:13:14;;;;;;;4.32;2.83;;;;;;;;;;4978987;28;20080;-77
2023/08/05 05:15:39;;;;;;;3.50;3.03;;;;;;;;;;4980807;28;20022;-78
2023/08/05 05:18:08;;;;;;;5.15;3.47;;;;;;;;;;4981941;28;20044;-78
2023/08/05 05:20:37;;;;;;;5.68;3.47;;;;;;;;;;4981179;28;20022;-78
2023/08/05 05:23:03;;;;;;;5.43;3.17;;;;;;;;;;4980848;28;20061;-78
2023/08/05 05:25:28;;;;;;;10.52;4.60;;;;;;;;;;4982358;28;20026;-76
2023/08/05 05:27:54;;;;;;;3.17;2.88;;;;;;;;;;5001545;28;20034;-77
2023/08/05 05:30:21;;;;;;;5.20;3.55;;;;;;;;;;4999178;28;20061;-77
2023/08/05 05:32:47;;;;;;;4.05;3.08;;;;;;;;;;4996349;28;20490;-78
2023/08/05 05:35:16;;;;;;;4.97;3.00;;;;;;;;;;5008366;28;20037;-78
2023/08/05 05:37:43;;;;;;;4.65;3.05;;;;;;;;;;5008740;28;20022;-78
2023/08/05 05:40:09;;;;;;;6.10;3.58;;;;;;;;;;4970671;28;20053;-76
2023/08/05 05:42:40;;;;;;;4.75;2.75;;;;;;;;;;4984198;28;20092;-76
2023/08/05 05:45:07;;;;;;;6.30;3.30;;;;;;;;;;4983173;28;20052;-78
2023/08/05 05:47:35;;;;;;;11.02;3.58;;;;;;;;;;5003551;28;20027;-78
2023/08/05 05:50:03;;;;;;;6.43;3.42;;;;;;;;;;5003302;28;20046;-79
2023/08/05 05:52:29;;;;;;;4.38;3.22;;;;;;;;;;5000662;28;20030;-78
2023/08/05 05:54:55;;;;;;;7.30;3.22;;;;;;;;;;4981806;28;20128;-78
2023/08/05 05:57:25;;;;;;;5.60;3.30;;;;;;;;;;4981656;28;20030;-80
2023/08/05 05:59:55;;;;;;;4.75;3.35;;;;;;;;;;4980251;28;20030;-78
2023/08/05 06:02:22;;;;;;;5.18;3.50;;;;;;;;;;4997993;28;20057;-78
2023/08/05 06:04:48;;;;;;;4.50;3.30;;;;;;;;;;4996869;28;20049;-78
2023/08/05 06:07:14;;;;;;;4.43;3.33;;;;;;;;;;4983549;28;20030;-77
2023/08/05 06:09:39;;;;;;;6.82;3.22;;;;;;;;;;4986705;28;20038;-78
2023/08/05 06:12:17;;;;;;;7.85;3.72;;;;;;;;;;4982564;28;20022;-78
2023/08/05 06:14:43;;;;;;;9.55;3.50;;;;;;;;;;4980675;28;20061;-78
2023/08/05 06:17:09;;;;;;;8.88;3.75;;;;;;;;;;4979181;28;20031;-78
2023/08/05 06:19:36;;;;;;;4.07;3.10;;;;;;;;;;4978677;28;20029;-77
2023/08/05 06:22:03;;;;;;;6.40;3.47;;;;;;;;;;4978470;28;20030;-77
2023/08/05 06:24:29;;;;;;;5.32;3.70;;;;;;;;;;4996446;28;20053;-77
2023/08/05 06:27:03;;;;;;;8.85;3.97;;;;;;;;;;4996802;28;20030;-78
2023/08/05 06:29:38;;;;;;;3.90;3.20;;;;;;;;;;4984136;28;20093;-79
2023/08/05 06:32:04;;;;;;;3.95;3.30;;;;;;;;;;4982327;28;20049;-78
2023/08/05 06:34:31;;;;;;;5.40;3.50;;;;;;;;;;4982487;28;20112;-78
2023/08/05 06:36:57;;;;;;;7.10;4.85;;;;;;;;;;4980626;28;20112;-78
2023/08/05 06:39:22;;;;;;;9.57;3.53;;;;;;;;;;4999821;28;20032;-77
2023/08/05 06:41:48;;;;;;;5.82;3.92;;;;;;;;;;4986422;28;20090;-77
2023/08/05 06:44:15;;;;;;;7.18;3.38;;;;;;;;;;4988740;28;20110;-77
2023/08/05 06:46:41;;;;;;;5.47;3.55;;;;;;;;;;4987071;28;20030;-78
2023/08/05 06:49:10;;;;;;;6.53;3.40;;;;;;;;;;4996148;28;20078;-77
2023/08/05 06:51:37;;;;;;;10.45;3.63;;;;;;;;;;4994365;28;20125;-77
2023/08/05 06:54:13;;;;;;;6.95;3.88;;;;;;;;;;4979788;28;20026;-78
2023/08/05 06:56:39;;;;;;;5.85;4.00;;;;;;;;;;4991202;28;20084;-79
2023/08/05 06:59:07;;;;;;;6.25;3.45;;;;;;;;;;4989326;28;20026;-77
2023/08/05 07:01:34;;;;;;;5.55;3.70;;;;;;;;;;5009973;28;20026;-78
2023/08/05 07:04:00;;;;;;;5.82;4.00;;;;;;;;;;5005286;28;20028;-77
2023/08/05 07:06:25;;;;;;;5.97;3.88;;;;;;;;;;4994057;28;20022;-78
2023/08/05 07:08:51;;;;;;;6.03;4.13;;;;;;;;;;4990728;28;20037;-78
2023/08/05 07:11:17;;;;;;;7.47;3.60;;;;;;;;;;5005447;28;20093;-78
2023/08/05 07:13:42;;;;;;;6.78;3.83;;;;;;;;;;4955509;28;20065;-76
2023/08/05 07:16:08;;;;;;;5.72;3.53;;;;;;;;;;4979614;28;20037;-77
2023/08/05 07:18:33;;;;;;;5.00;4.00;;;;;;;;;;4993376;28;20026;-79
2023/08/05 07:21:00;;;;;;;7.65;3.35;;;;;;;;;;4990556;28;20034;-77
2023/08/05 07:23:26;;;;;;;9.63;3.75;;;;;;;;;;4990436;28;20375;-77
2023/08/05 07:25:51;;;;;;;9.35;4.85;;;;;;;;;;4972647;28;20050;-78
2023/08/05 07:28:17;;;;;;;6.18;3.80;;;;;;;;;;4973080;28;20030;-77
2023/08/05 07:30:44;;;;;;;9.13;4.15;;;;;;;;;;4990742;28;20363;-79
2023/08/05 07:33:11;;;;;;;5.80;4.00;;;;;;;;;;4990128;28;20058;-78
2023/08/05 07:35:37;;;;;;;7.28;4.45;;;;;;;;;;5012228;28;20034;-78
2023/08/05 07:38:09;;;;;;;4.57;3.80;;;;;;;;;;5010203;28;20434;-79
2023/08/05 07:40:35;;;;;;;5.85;4.10;;;;;;;;;;5010206;28;20059;-79
2023/08/05 07:43:03;;;;;;;7.10;4.38;;;;;;;;;;5012008;28;20048;-79
2023/08/05 07:45:29;;;;;;;7.03;4.65;;;;;;;;;;5010387;28;20044;-79
2023/08/05 07:47:56;;;;;;;8.55;4.43;;;;;;;;;;5026547;28;20022;-78
2023/08/05 07:50:22;;;;;;;6.45;4.20;;;;;;;;;;5009567;28;20056;-79
2023/08/05 07:52:51;;;;;;;7.25;4.15;;;;;;;;;;5009317;28;20026;-78
2023/08/05 07:55:18;;;;;;;9.55;4.40;;;;;;;;;;5010456;28;20757;-78
2023/08/05 07:57:46;;;;;;;6.07;4.25;;;;;;;;;;5009749;28;20037;-80
2023/08/05 08:00:13;;;;;;;6.05;4.40;;;;;;;;;;5008901;28;20486;-79
2023/08/05 08:02:43;;;;;;;4.97;4.10;;;;;;;;;;5010622;28;20034;-80
2023/08/05 08:05:13;;;;;;;6.97;4.35;;;;;;;;;;5009277;28;20030;-79
2023/08/05 08:07:46;;;;;;;10.57;5.22;;;;;;;;;;5009792;28;20608;-79
2023/08/05 08:10:12;;;;;;;5.10;3.88;;;;;;;;;;5009380;28;20111;-79
2023/08/05 08:12:37;;;;;;;6.15;4.47;;;;;;;;;;5009299;28;20698;-78
2023/08/05 08:15:03;;;;;;;8.02;4.97;;;;;;;;;;5010722;28;20370;-79
2023/08/05 08:17:29;;;;;;;9.43;6.05;;;;;;;;;;5010787;28;20022;-79
2023/08/05 08:19:54;;;;;;;7.78;4.60;;;;;;;;;;5010533;28;20658;-79
2023/08/05 08:22:20;;;;;;;11.82;4.63;;;;;;;;;;5025835;28;20033;-78
2023/08/05 08:24:45;;;;;;;5.15;4.32;;;;;;;;;;5010664;28;20516;-79
2023/08/05 08:27:11;;;;;;;4.32;3.90;;;;;;;;;;5009074;28;20030;-78
2023/08/05 08:29:37;;;;;;;7.20;4.03;;;;;;;;;;5009427;28;20037;-78
2023/08/05 08:32:02;;;;;;;9.30;4.32;;;;;;;;;;5010487;28;20108;-79
2023/08/05 08:34:28;;;;;;;7.20;4.63;;;;;;;;;;4994815;28;20058;-78
2023/08/05 08:36:55;;;;;;;6.45;4.82;;;;;;;;;;5014594;28;20100;-80
2023/08/05 08:39:21;;;;;;;7.07;4.63;;;;;;;;;;4996821;28;20026;-78
2023/08/05 08:41:49;;;;;;;5.50;4.57;;;;;;;;;;4997139;28;20037;-78
2023/08/05 08:44:16;;;;;;;7.60;4.70;;;;;;;;;;4997346;28;20042;-79
2023/08/05 08:46:43;;;;;;;7.32;4.68;;;;;;;;;;5003920;28;20033;-79
2023/08/05 08:49:11;;;;;;;7.53;5.80;;;;;;;;;;5008973;28;20140;-79
2023/08/05 08:51:37;;;;;;;7.78;5.10;;;;;;;;;;5023595;28;20030;-79
2023/08/05 08:54:03;;;;;;;5.80;4.72;;;;;;;;;;5005926;28;20068;-80
2023/08/05 08:56:31;;;;;;;10.10;4.97;;;;;;;;;;5005189;28;20033;-79
2023/08/05 08:58:56;;;;;;;6.90;5.00;;;;;;;;;;5017431;28;20033;-78
2023/08/05 09:01:22;;;;;;;7.25;4.97;;;;;;;;;;5019065;28;20030;-80
2023/08/05 09:03:51;;;;;;;9.25;4.93;;;;;;;;;;4996356;28;20037;-79
2023/08/05 09:06:21;;;;;;;7.20;4.85;;;;;;;;;;4995799;28;20501;-77
2023/08/05 09:08:47;;;;;;;6.28;4.95;;;;;;;;;;5014223;28;20497;-79
2023/08/05 09:11:14;;;;;;;8.35;5.35;;;;;;;;;;4996337;28;20386;-79
2023/08/05 09:13:40;;;;;;;9.23;6.07;;;;;;;;;;4996128;28;20397;-78
2023/08/05 09:16:06;;;;;;;12.57;5.88;;;;;;;;;;4996715;28;20029;-79
2023/08/05 09:18:31;;;;;;;9.77;5.15;;;;;;;;;;4995992;28;20018;-79
2023/08/05 09:21:00;;;;;;;7.57;5.18;;;;;;;;;;4996314;28;20482;-77
2023/08/05 09:23:25;;;;;;;8.30;5.70;;;;;;;;;;4995461;28;20033;-78
2023/08/05 09:25:52;;;;;;;8.23;4.90;;;;;;;;;;4995601;28;20056;-79
2023/08/05 09:28:30;;;;;;;17.45;7.40;;;;;;;;;;4995416;28;20026;-78
2023/08/05 09:31:16;;;;;;;6.20;4.70;;;;;;;;;;4995799;28;20378;-78
2023/08/05 09:33:43;;;;;;;7.95;5.22;;;;;;;;;;5006186;28;20046;-77
2023/08/05 09:36:10;;;;;;;9.23;4.80;;;;;;;;;;5012906;28;20091;-78
2023/08/05 09:38:38;;;;;;;11.35;5.45;;;;;;;;;;5013483;28;20026;-79
2023/08/05 09:41:04;;;;;;;5.80;4.47;;;;;;;;;;5011560;28;20076;-78
2023/08/05 09:43:34;;;;;;;8.20;5.25;;;;;;;;;;5013157;28;20054;-78
2023/08/05 09:46:04;;;;;;;6.30;5.13;;;;;;;;;;5010966;28;20112;-77
2023/08/05 09:48:38;;;;;;;12.23;5.50;;;;;;;;;;5011877;28;20030;-78
2023/08/05 09:51:05;;;;;;;8.77;5.25;;;;;;;;;;5012950;28;20561;-78
2023/08/05 09:53:35;;;;;;;10.60;7.05;;;;;;;;;;5011818;28;20030;-78
2023/08/05 09:56:02;;;;;;;8.13;5.55;;;;;;;;;;5011766;28;20041;-79
2023/08/05 09:58:30;;;;;;;9.45;5.15;;;;;;;;;;5011529;28;20030;-79
2023/08/05 10:00:56;;;;;;;8.52;5.97;;;;;;;;;;5012124;28;20041;-78
2023/08/05 10:03:22;;;;;;;6.90;5.15;;;;;;;;;;5011934;28;20041;-79
2023/08/05 10:05:49;;;;;;;7.78;5.10;;;;;;;;;;5012056;28;20032;-80
2023/08/05 10:08:16;;;;;;;11.25;5.28;;;;;;;;;;5011210;28;20033;-78
2023/08/05 10:10:43;;;;;;;5.00;4.35;;;;;;;;;;5011043;28;20026;-76
2023/08/05 10:13:14;;;;;;;10.50;5.90;;;;;;;;;;5011447;28;20080;-76
2023/08/05 10:15:43;;;;;;;6.07;5.13;;;;;;;;;;5013014;28;20134;-78
2023/08/05 10:18:14;;;;;;;17.73;6.95;;;;;;;;;;5012422;28;20037;-78
2023/08/05 10:20:39;;;;;;;9.32;5.28;;;;;;;;;;5011664;28;20034;-78
2023/08/05 10:23:09;;;;;;;12.38;6.47;;;;;;;;;;5014545;28;20026;-77
2023/08/05 10:25:46;;;;;;;12.38;6.15;;;;;;;;;;5012941;28;20120;-77
2023/08/05 10:28:33;;;;;;;12.13;5.82;;;;;;;;;;5027647;28;20112;-76
2023/08/05 10:31:03;;;;;;;9.30;5.47;;;;;;;;;;5029506;28;20101;-78
2023/08/05 10:33:29;;;;;;;9.77;5.47;;;;;;;;;;5038306;28;20049;-77
2023/08/05 10:36:05;;;;;;;6.68;4.82;;;;;;;;;;5017109;28;20026;-76
2023/08/05 10:38:41;;;;;;;13.30;5.07;;;;;;;;;;5014826;28;20097;-77
2023/08/05 10:41:07;;;;;;;8.77;5.13;;;;;;;;;;5015825;28;20045;-78
2023/08/05 10:43:41;;;;;;;7.32;5.43;;;;;;;;;;5015331;28;20445;-76
2023/08/05 10:46:06;;;;;;;6.90;5.15;;;;;;;;;;5012798;28;20053;-76
2023/08/05 10:48:43;;;;;;;7.82;4.60;;;;;;;;;;5011991;28;20030;-77
2023/08/05 10:51:12;;;;;;;7.05;4.10;;;;;;;;;;5013431;28;20466;-76
2023/08/05 10:53:38;;;;;;;8.52;4.45;;;;;;;;;;5012824;28;20057;-77
2023/08/05 10:56:10;;;;;;;6.25;4.63;;;;;;;;;;5016395;28;20029;-82
2023/08/05 10:58:37;;;;;;;7.60;5.22;;;;;;;;;;5029308;28;20065;-82
2023/08/05 11:01:04;;;;;;;8.93;4.75;;;;;;;;;;5025242;28;20047;-82
2023/08/05 11:03:32;;;;;;;8.45;4.38;;;;;;;;;;5023530;28;20117;-83
2023/08/05 11:06:04;;;;;;;5.85;4.03;;;;;;;;;;5020091;28;20062;-83
2023/08/05 11:08:30;;;;;;;5.78;4.05;;;;;;;;;;5015208;28;20091;-82
2023/08/05 11:10:57;;;;;;;7.35;4.43;;;;;;;;;;5017859;28;20029;-82
2023/08/05 11:13:23;;;;;;;6.55;3.92;;;;;;;;;;5013141;28;20017;-82
2023/08/05 11:16:11;;;;;;;5.40;3.65;;;;;;;;;;5012374;28;20406;-82
2023/08/05 11:18:43;;;;;;;6.07;3.83;;;;;;;;;;5010551;28;20037;-84
2023/08/05 11:21:14;;;;;;;4.28;3.60;;;;;;;;;;5011228;28;20037;-83
2023/08/05 11:23:43;;;;;;;6.68;3.90;;;;;;;;;;5009998;28;20113;-81
2023/08/05 11:26:09;;;;;;;8.57;4.10;;;;;;;;;;5009896;28;20037;-77
2023/08/05 11:28:40;;;;;;;6.55;4.18;;;;;;;;;;5010469;28;20037;-82
2023/08/05 11:31:06;;;;;;;;;;;;;;;;;;5012914;28;20030;-83
2023/08/05 11:33:32;;;;;;;6.20;3.97;;;;;;;;;;5011971;28;19924;-83
2023/08/05 11:35:58;;;;;;;7.13;4.00;;;;;;;;;;4994382;28;20026;-82
2023/08/05 11:38:24;;;;;;;5.45;4.25;;;;;;;;;;4994383;28;20040;-83
2023/08/05 11:40:55;;;;;;;7.53;4.47;;;;;;;;;;4993845;28;20117;-82
2023/08/05 11:43:22;;;;;;;5.13;3.63;;;;;;;;;;5012197;28;20532;-84
2023/08/05 11:45:49;;;;;;;7.43;4.03;;;;;;;;;;5012196;28;20038;-83
2023/08/05 11:48:23;;;;;;;7.95;4.07;;;;;;;;;;5012730;28;20445;-83
2023/08/05 11:50:51;;;;;;;7.25;3.70;;;;;;;;;;4993836;28;20525;-83
2023/08/05 11:53:19;;;;;;;4.82;3.80;;;;;;;;;;4993885;28;20037;-84
2023/08/05 11:55:46;;;;;;;5.68;3.40;;;;;;;;;;4993997;28;20022;-84
2023/08/05 11:58:13;;;;;;;7.20;4.38;;;;;;;;;;4993899;28;20026;-82
2023/08/05 12:00:47;;;;;;;5.70;3.53;;;;;;;;;;4993646;28;20038;-81
2023/08/05 12:03:13;;;;;;;5.20;3.80;;;;;;;;;;4994097;28;20148;-83
2023/08/05 12:05:43;;;;;;;4.72;3.33;;;;;;;;;;4995522;28;20026;-76
2023/08/05 12:08:10;;;;;;;7.30;4.45;;;;;;;;;;5004327;28;20026;-80
2023/08/05 12:10:37;;;;;;;6.95;3.88;;;;;;;;;;5027902;28;20021;-83
2023/08/05 12:13:04;;;;;;;6.25;3.70;;;;;;;;;;5005003;28;20116;-84
2023/08/05 12:15:30;;;;;;;8.85;4.55;;;;;;;;;;5001182;28;20033;-83
2023/08/05 12:18:02;;;;;;;6.95;4.22;;;;;;;;;;5000526;28;20396;-82
2023/08/05 12:20:32;;;;;;;6.78;4.50;;;;;;;;;;4999661;28;20076;-81
2023/08/05 12:22:58;;;;;;;5.80;3.93;;;;;;;;;;5017532;28;20028;-84
2023/08/05 12:25:25;;;;;;;6.05;3.60;;;;;;;;;;5016798;28;20389;-82
2023/08/05 12:27:50;;;;;;;4.88;3.72;;;;;;;;;;5016585;28;20026;-81
2023/08/05 12:30:16;;;;;;;5.90;3.53;;;;;;;;;;4999330;28;20076;-83
2023/08/05 12:32:42;;;;;;;6.25;4.07;;;;;;;;;;5002081;28;20089;-84
2023/08/05 12:35:09;;;;;;;8.13;3.45;;;;;;;;;;5016022;28;20022;-84
2023/08/05 12:37:36;;;;;;;7.00;3.78;;;;;;;;;;5016932;28;20079;-80
2023/08/05 12:40:06;;;;;;;13.52;4.43;;;;;;;;;;5017029;28;20110;-83
2023/08/05 12:42:32;;;;;;;7.10;3.93;;;;;;;;;;5032968;28;20026;-83
2023/08/05 12:45:00;;;;;;;10.60;7.60;;;;;;;;;;5017446;28;20057;-83
2023/08/05 12:47:26;;;;;;;5.97;3.28;;;;;;;;;;5032531;28;20026;-81
2023/08/05 12:49:54;;;;;;;8.93;4.10;;;;;;;;;;5016273;28;20037;-85
2023/08/05 12:52:20;;;;;;;9.35;4.50;;;;;;;;;;5017545;28;20562;-81
2023/08/05 12:54:45;;;;;;;9.18;4.03;;;;;;;;;;5016252;28;20042;-83
2023/08/05 12:57:11;;;;;;;8.32;3.95;;;;;;;;;;5017899;28;20455;-82
2023/08/05 12:59:37;;;;;;;5.75;3.50;;;;;;;;;;5015557;28;20034;-82
2023/08/05 13:02:03;;;;;;;6.70;4.30;;;;;;;;;;5016949;28;20045;-78
2023/08/05 13:04:29;;;;;;;5.47;3.92;;;;;;;;;;5016871;28;20034;-78
2023/08/05 13:06:55;;;;;;;8.75;3.97;;;;;;;;;;5015103;28;20111;-78
2023/08/05 13:09:21;;;;;;;7.85;3.80;;;;;;;;;;5015224;28;20077;-77
2023/08/05 13:11:47;;;;;;;6.30;3.78;;;;;;;;;;5015904;28;20053;-77
2023/08/05 13:14:13;;;;;;;4.63;3.25;;;;;;;;;;5017585;28;20032;-79
2023/08/05 13:16:40;;;;;;;7.63;3.70;;;;;;;;;;5016145;28;20401;-78
2023/08/05 13:19:06;;;;;;;6.13;3.53;;;;;;;;;;5017822;28;20072;-79
2023/08/05 13:21:33;;;;;;;6.32;3.80;;;;;;;;;;5011949;28;20025;-78
2023/08/05 13:23:59;;;;;;;4.68;3.45;;;;;;;;;;5012859;28;20036;-79
2023/08/05 13:26:24;;;;;;;4.20;3.80;;;;;;;;;;5013297;28;20022;-79
2023/08/05 13:28:51;;;;;;;7.68;3.78;;;;;;;;;;5014354;28;20140;-78
2023/08/05 13:31:17;;;;;;;7.10;4.28;;;;;;;;;;5016779;28;20037;-80
2023/08/05 13:33:43;;;;;;;10.60;3.55;;;;;;;;;;5016625;28;20092;-80
2023/08/05 13:36:10;;;;;;;7.57;3.88;;;;;;;;;;5016823;28;20030;-78
2023/08/05 13:38:35;;;;;;;6.55;4.78;;;;;;;;;;4999313;28;20037;-79
2023/08/05 13:41:01;;;;;;;4.75;3.92;;;;;;;;;;5018305;28;20037;-78
2023/08/05 13:43:26;;;;;;;6.28;4.07;;;;;;;;;;5015771;28;20014;-79
2023/08/05 13:45:54;;;;;;;6.38;4.28;;;;;;;;;;5010735;28;20022;-78
2023/08/05 13:48:20;;;;;;;7.65;4.38;;;;;;;;;;5008911;28;20032;-78
2023/08/05 13:50:46;;;;;;;6.22;4.53;;;;;;;;;;5008315;28;20517;-77
2023/08/05 13:53:12;;;;;;;6.68;4.65;;;;;;;;;;5009640;28;20033;-79
2023/08/05 13:55:38;;;;;;;6.70;4.13;;;;;;;;;;5021375;28;20425;-78
2023/08/05 13:58:05;;;;;;;9.00;4.68;;;;;;;;;;5014000;28;20029;-79
2023/08/05 14:00:39;;;;;;;7.82;5.43;;;;;;;;;;4996219;28;20072;-78
2023/08/05 14:03:05;;;;;;;7.30;4.00;;;;;;;;;;5014568;28;20115;-78
2023/08/05 14:05:32;;;;;;;7.97;4.45;;;;;;;;;;5012430;28;20406;-78
2023/08/05 14:07:57;;;;;;;6.03;4.22;;;;;;;;;;4995191;28;20030;-78
2023/08/05 14:10:23;;;;;;;7.30;4.60;;;;;;;;;;5012821;28;20060;-78
2023/08/05 14:12:49;;;;;;;8.85;5.13;;;;;;;;;;5013206;28;20435;-79
2023/08/05 14:15:14;;;;;;;8.50;4.88;;;;;;;;;;5012895;28;20404;-78
2023/08/05 14:17:40;;;;;;;6.43;5.10;;;;;;;;;;4995655;28;20352;-79
2023/08/05 14:20:06;;;;;;;8.63;4.65;;;;;;;;;;5013077;28;20029;-79
2023/08/05 14:22:32;;;;;;;11.38;5.13;;;;;;;;;;5013299;28;20029;-78
2023/08/05 14:24:58;;;;;;;5.95;4.15;;;;;;;;;;4996337;28;20030;-78
2023/08/05 14:27:25;;;;;;;4.85;3.97;;;;;;;;;;4996035;28;20124;-78
2023/08/05 14:29:51;;;;;;;7.03;4.03;;;;;;;;;;4979230;28;20030;-79
2023/08/05 14:32:16;;;;;;;5.32;4.05;;;;;;;;;;5012379;28;20089;-79
2023/08/05 14:34:42;;;;;;;5.70;3.80;;;;;;;;;;4994938;28;20558;-79
2023/08/05 14:37:09;;;;;;;5.53;3.40;;;;;;;;;;5012791;28;20033;-78
2023/08/05 14:39:34;;;;;;;8.05;4.15;;;;;;;;;;4994408;28;20049;-78
2023/08/05 14:42:00;;;;;;;8.63;4.35;;;;;;;;;;5006018;28;20423;-79
2023/08/05 14:44:25;;;;;;;4.63;3.88;;;;;;;;;;4992096;28;20033;-79
2023/08/05 14:46:51;;;;;;;7.75;4.45;;;;;;;;;;4974800;28;20104;-78